Time;durP1;ratioP1;P1;durP2;ratioP2;P2;SDS_P1;SDS_P2;PMS_P1;PMS_P2;Temp;Humidity;BMP_temperature;BMP_pressure;BME280_temperature;BME280_humidity;BME280_pressure;Samples;Min_cycle;Max_cycle;Signal;HPM_P1;HPM_P2
2023/05/03 00:01:56;;;;;;;0.90;0.60;;;16.30;62.10;;;;;;4870873;29;20621;-79
2023/05/03 00:04:24;;;;;;;0.73;0.70;;;16.20;62.30;;;;;;4877492;29;20664;-81
2023/05/03 00:06:52;;;;;;;1.50;0.90;;;16.10;62.10;;;;;;4879727;29;20209;-80
2023/05/03 00:09:21;;;;;;;0.20;0.20;;;16.10;62.10;;;;;;4876669;29;20664;-80
2023/05/03 00:11:52;;;;;;;0.47;0.47;;;16.00;62.20;;;;;;4878472;29;20254;-80
2023/05/03 00:14:20;;;;;;;0.87;0.73;;;16.00;63.60;;;;;;4878572;29;20350;-80
2023/05/03 00:16:48;;;;;;;1.80;0.73;;;15.90;64.50;;;;;;4869877;29;20230;-80
2023/05/03 00:19:18;;;;;;;0.50;0.50;;;15.80;65.40;;;;;;4872841;29;20212;-80
2023/05/03 00:21:58;;;;;;;1.57;0.60;;;15.80;65.00;;;;;;4874704;29;20292;-79
2023/05/03 00:24:27;;;;;;;1.07;0.93;;;15.60;67.00;;;;;;4879147;29;20545;-80
2023/05/03 00:26:56;;;;;;;0.27;0.27;;;15.50;66.70;;;;;;4876619;29;20209;-80
2023/05/03 00:29:25;;;;;;;0.87;0.60;;;15.50;67.20;;;;;;4874211;29;20205;-81
2023/05/03 00:31:53;;;;;;;1.20;0.60;;;15.40;67.00;;;;;;4873042;29;20225;-80
2023/05/03 00:34:21;;;;;;;2.23;0.93;;;15.30;67.90;;;;;;4875637;29;20213;-81
2023/05/03 00:36:50;;;;;;;0.57;0.50;;;15.20;67.80;;;;;;4879920;29;20244;-81
2023/05/03 00:39:18;;;;;;;0.77;0.73;;;15.10;68.80;;;;;;4874514;29;20614;-82
2023/05/03 00:41:46;;;;;;;0.60;0.57;;;15.00;68.60;;;;;;4871748;29;20217;-82
2023/05/03 00:44:16;;;;;;;0.40;0.40;;;15.00;69.20;;;;;;4878157;29;20672;-80
2023/05/03 00:46:44;;;;;;;0.83;0.80;;;14.90;69.70;;;;;;4874712;29;20626;-81
2023/05/03 00:49:13;;;;;;;0.87;0.60;;;14.90;70.30;;;;;;4872635;29;20228;-81
2023/05/03 00:51:42;;;;;;;1.60;0.57;;;14.80;71.00;;;;;;4873804;29;20201;-80
2023/05/03 00:54:11;;;;;;;1.20;1.10;;;14.70;70.80;;;;;;4870550;29;20214;-81
2023/05/03 00:56:40;;;;;;;2.67;1.20;;;14.70;70.90;;;;;;4870615;29;20212;-80
2023/05/03 00:59:20;;;;;;;0.97;0.67;;;14.70;71.00;;;;;;4878744;29;20562;-80
2023/05/03 01:01:50;;;;;;;0.67;0.50;;;14.60;71.50;;;;;;4876797;29;20217;-81
2023/05/03 01:04:20;;;;;;;0.53;0.53;;;14.60;72.10;;;;;;4878247;29;20209;-82
2023/05/03 01:06:57;;;;;;;1.23;0.80;;;14.40;72.40;;;;;;4868121;29;20201;-80
2023/05/03 01:09:32;;;;;;;0.30;0.30;;;14.50;72.20;;;;;;4878974;29;20201;-79
2023/05/03 01:12:18;;;;;;;0.70;0.70;;;14.50;72.80;;;;;;4868819;29;20219;-80
2023/05/03 01:14:58;;;;;;;0.70;0.70;;;14.40;71.80;;;;;;4871144;29;20273;-81
2023/05/03 01:17:30;;;;;;;1.03;1.03;;;14.40;72.50;;;;;;4864725;29;20201;-80
2023/05/03 01:20:07;;;;;;;0.70;0.70;;;14.30;72.00;;;;;;4874097;29;20203;-80
2023/05/03 01:22:43;;;;;;;1.23;0.90;;;14.30;72.60;;;;;;4873613;29;20220;-82
2023/05/03 01:25:15;;;;;;;0.80;0.80;;;14.30;72.60;;;;;;4876042;29;20268;-81
2023/05/03 01:27:44;;;;;;;0.50;0.50;;;14.20;73.60;;;;;;4871487;29;20204;-80
2023/05/03 01:30:13;;;;;;;1.27;1.17;;;14.20;73.80;;;;;;4877326;29;20233;-82
2023/05/03 01:32:50;;;;;;;1.60;0.90;;;14.20;73.40;;;;;;4872907;29;20201;-80
2023/05/03 01:35:30;;;;;;;1.67;1.10;;;14.20;73.60;;;;;;4874412;29;20607;-80
2023/05/03 01:37:59;;;;;;;0.30;0.30;;;14.10;73.90;;;;;;4870438;29;20250;-79
2023/05/03 01:40:31;;;;;;;0.40;0.40;;;14.10;73.80;;;;;;4870450;29;20216;-80
2023/05/03 01:43:00;;;;;;;1.83;0.97;;;14.00;74.20;;;;;;4875111;29;20691;-81
2023/05/03 01:45:29;;;;;;;1.50;1.03;;;14.00;74.60;;;;;;4870818;29;20241;-81
2023/05/03 01:47:57;;;;;;;0.47;0.47;;;13.90;75.00;;;;;;4871232;29;20289;-79
2023/05/03 01:50:25;;;;;;;0.63;0.60;;;13.90;75.30;;;;;;4870655;29;20312;-80
2023/05/03 01:52:54;;;;;;;0.60;0.60;;;13.80;75.70;;;;;;4872288;29;20204;-80
2023/05/03 01:55:22;;;;;;;3.20;0.90;;;13.80;76.30;;;;;;4869429;29;20265;-82
2023/05/03 01:57:52;;;;;;;0.70;0.70;;;13.80;76.30;;;;;;4876350;29;20252;-81
2023/05/03 02:00:20;;;;;;;2.43;1.40;;;13.70;76.40;;;;;;4868493;29;20197;-81
2023/05/03 02:02:49;;;;;;;0.70;0.70;;;13.70;76.60;;;;;;4872634;29;20758;-81
2023/05/03 02:05:17;;;;;;;1.37;1.00;;;13.60;76.70;;;;;;4877763;29;20307;-80
2023/05/03 02:07:45;;;;;;;1.60;1.13;;;13.70;76.80;;;;;;4876700;29;20256;-80
2023/05/03 02:10:15;;;;;;;1.23;0.80;;;13.60;76.70;;;;;;4876291;29;20573;-81
2023/05/03 02:12:44;;;;;;;1.30;0.97;;;13.60;76.80;;;;;;4875214;29;20202;-80
2023/05/03 02:15:14;;;;;;;1.90;1.30;;;13.60;77.30;;;;;;4877014;29;20257;-80
2023/05/03 02:17:44;;;;;;;0.50;0.50;;;13.60;77.00;;;;;;4875055;29;20266;-81
2023/05/03 02:20:13;;;;;;;0.70;0.70;;;13.60;77.20;;;;;;4870049;29;20204;-81
2023/05/03 02:22:42;;;;;;;3.93;0.80;;;13.50;77.30;;;;;;4874095;29;20228;-80
2023/05/03 02:25:10;;;;;;;0.67;0.60;;;13.50;77.30;;;;;;4876283;29;20220;-80
2023/05/03 02:27:39;;;;;;;0.63;0.60;;;13.50;77.70;;;;;;4872422;29;20617;-79
2023/05/03 02:30:08;;;;;;;0.60;0.60;;;13.50;77.40;;;;;;4874215;29;20308;-82
2023/05/03 02:32:38;;;;;;;1.60;1.00;;;13.50;78.60;;;;;;4869435;29;20201;-82
2023/05/03 02:35:07;;;;;;;1.30;1.13;;;13.50;78.00;;;;;;4872475;29;20209;-79
2023/05/03 02:37:36;;;;;;;2.63;1.00;;;13.50;77.50;;;;;;4869650;29;20209;-80
2023/05/03 02:40:06;;;;;;;1.20;1.00;;;13.40;77.70;;;;;;4869482;29;20197;-81
2023/05/03 02:42:34;;;;;;;1.80;1.07;;;13.40;78.10;;;;;;4876926;29;20916;-81
2023/05/03 02:45:03;;;;;;;4.47;1.27;;;13.40;77.80;;;;;;4871786;29;20733;-80
2023/05/03 02:47:31;;;;;;;1.77;0.63;;;13.30;78.10;;;;;;4870109;29;20202;-82
2023/05/03 02:50:01;;;;;;;1.27;0.70;;;13.40;77.70;;;;;;4874956;29;20209;-80
2023/05/03 02:52:30;;;;;;;1.03;0.73;;;13.40;78.10;;;;;;4866596;29;20206;-82
2023/05/03 02:54:59;;;;;;;1.17;0.70;;;13.40;77.50;;;;;;4870208;29;20209;-79
2023/05/03 02:57:28;;;;;;;1.60;0.93;;;13.40;78.00;;;;;;4871448;29;20666;-81
2023/05/03 02:59:57;;;;;;;0.50;0.50;;;13.30;78.70;;;;;;4869825;29;20212;-81
2023/05/03 03:02:25;;;;;;;2.23;1.00;;;13.30;78.80;;;;;;4868309;29;20233;-80
2023/05/03 03:04:54;;;;;;;1.50;1.40;;;13.20;78.80;;;;;;4870165;29;20296;-80
2023/05/03 03:07:24;;;;;;;0.97;0.83;;;13.30;78.50;;;;;;4874987;29;20738;-79
2023/05/03 03:09:52;;;;;;;0.50;0.50;;;13.30;78.90;;;;;;4877380;29;20217;-83
2023/05/03 03:12:21;;;;;;;12.10;1.00;;;13.20;79.10;;;;;;4872438;29;20201;-81
2023/05/03 03:14:49;;;;;;;2.93;1.90;;;13.20;79.20;;;;;;4873501;29;20205;-80
2023/05/03 03:17:17;;;;;;;2.00;1.43;;;13.10;79.50;;;;;;4876989;29;20242;-81
2023/05/03 03:19:46;;;;;;;0.60;0.60;;;13.10;79.50;;;;;;4874182;29;20253;-82
2023/05/03 03:22:14;;;;;;;4.13;1.50;;;13.20;79.40;;;;;;4871588;29;20261;-80
2023/05/03 03:24:44;;;;;;;1.70;1.33;;;13.10;79.50;;;;;;4875840;29;20225;-81
2023/05/03 03:27:12;;;;;;;1.17;0.80;;;13.10;80.00;;;;;;4878614;29;20249;-81
2023/05/03 03:29:41;;;;;;;1.07;0.80;;;13.10;80.20;;;;;;4877470;29;20549;-82
2023/05/03 03:32:09;;;;;;;0.80;0.80;;;13.10;80.40;;;;;;4874217;29;21173;-80
2023/05/03 03:34:39;;;;;;;0.60;0.60;;;13.10;80.40;;;;;;4872319;29;20198;-81
2023/05/03 03:37:07;;;;;;;1.50;0.77;;;13.10;80.40;;;;;;4876878;29;20197;-81
2023/05/03 03:39:35;;;;;;;3.03;1.17;;;13.10;80.90;;;;;;4870522;29;20213;-82
2023/05/03 03:42:05;;;;;;;1.27;0.60;;;13.10;81.10;;;;;;4874515;29;20662;-80
2023/05/03 03:44:34;;;;;;;12.67;1.43;;;13.10;81.10;;;;;;4876245;29;20220;-80
2023/05/03 03:47:02;;;;;;;2.57;1.40;;;13.10;81.40;;;;;;4874713;29;20213;-79
2023/05/03 03:49:31;;;;;;;1.17;0.93;;;13.10;81.60;;;;;;4873895;29;20249;-81
2023/05/03 03:51:59;;;;;;;4.70;1.90;;;13.10;81.70;;;;;;4879554;29;20240;-82
2023/05/03 03:54:27;;;;;;;3.40;1.03;;;13.10;81.70;;;;;;4878993;29;20262;-81
2023/05/03 03:56:56;;;;;;;0.67;0.43;;;13.10;81.90;;;;;;4875956;29;20258;-80
2023/05/03 03:59:25;;;;;;;1.40;0.60;;;13.10;82.00;;;;;;4873479;29;20224;-81
2023/05/03 04:01:54;;;;;;;1.40;0.83;;;13.10;81.90;;;;;;4877665;29;20204;-80
2023/05/03 04:04:23;;;;;;;2.43;1.17;;;13.10;82.10;;;;;;4875339;29;20312;-80
2023/05/03 04:06:51;;;;;;;2.23;1.53;;;13.20;81.50;;;;;;4867284;29;20213;-84
2023/05/03 04:09:20;;;;;;;2.63;1.23;;;13.20;82.00;;;;;;4870816;29;20209;-83
2023/05/03 04:11:48;;;;;;;10.50;2.73;;;13.20;82.40;;;;;;4875153;29;20279;-81
2023/05/03 04:14:17;;;;;;;1.53;0.73;;;13.20;82.80;;;;;;4871706;29;20626;-80
2023/05/03 04:16:47;;;;;;;1.80;1.37;;;13.10;83.20;;;;;;4869887;29;20209;-78
2023/05/03 04:19:17;;;;;;;0.70;0.70;;;13.20;82.70;;;;;;4875940;29;20229;-83
2023/05/03 04:21:45;;;;;;;1.80;1.23;;;13.20;83.80;;;;;;4876395;29;20236;-81
2023/05/03 04:24:17;;;;;;;0.73;0.73;;;13.20;83.40;;;;;;4870622;29;20703;-81
2023/05/03 04:26:46;;;;;;;1.30;0.97;;;13.20;84.10;;;;;;4874360;29;20197;-81
2023/05/03 04:29:14;;;;;;;1.30;1.20;;;13.20;84.00;;;;;;4873966;29;20205;-82
2023/05/03 04:31:42;;;;;;;2.03;1.00;;;13.30;83.50;;;;;;4874339;29;20237;-81
2023/05/03 04:34:14;;;;;;;0.50;0.50;;;13.30;84.30;;;;;;4874410;29;20644;-81
2023/05/03 04:36:44;;;;;;;1.80;1.07;;;13.30;84.00;;;;;;4871716;29;20205;-82
2023/05/03 04:39:12;;;;;;;0.80;0.80;;;13.30;84.10;;;;;;4870779;29;20201;-80
2023/05/03 04:41:41;;;;;;;1.60;1.13;;;13.40;83.90;;;;;;4865868;29;20197;-81
2023/05/03 04:44:09;;;;;;;1.50;1.13;;;13.40;83.50;;;;;;4872868;29;20222;-81
2023/05/03 04:46:38;;;;;;;1.17;1.07;;;13.50;83.30;;;;;;4868502;29;20269;-81
2023/05/03 04:49:06;;;;;;;0.60;0.60;;;13.60;83.10;;;;;;4871904;29;20756;-82
2023/05/03 04:51:36;;;;;;;0.73;0.70;;;13.50;84.40;;;;;;4871323;29;20658;-82
2023/05/03 04:54:05;;;;;;;4.17;0.80;;;13.60;84.20;;;;;;4865361;29;20732;-82
2023/05/03 04:56:34;;;;;;;1.50;0.57;;;13.70;83.80;;;;;;4874520;29;20244;-80
2023/05/03 04:59:04;;;;;;;1.70;1.33;;;13.80;83.20;;;;;;4871139;29;20616;-80
2023/05/03 05:01:32;;;;;;;1.97;1.30;;;13.80;83.50;;;;;;4868065;29;20239;-81
2023/05/03 05:04:03;;;;;;;2.17;1.27;;;13.90;83.30;;;;;;4871934;29;20228;-80
2023/05/03 05:06:31;;;;;;;1.70;1.27;;;14.00;83.00;;;;;;4869463;29;20231;-81
2023/05/03 05:09:01;;;;;;;1.20;0.87;;;14.10;82.80;;;;;;4873766;29;20621;-81
2023/05/03 05:11:30;;;;;;;2.90;2.13;;;14.20;82.90;;;;;;4869279;29;20691;-81
2023/05/03 05:13:58;;;;;;;2.70;1.43;;;14.20;82.70;;;;;;4873165;29;20206;-81
2023/05/03 05:16:27;;;;;;;0.87;0.83;;;14.30;82.50;;;;;;4877670;29;20205;-82
2023/05/03 05:18:55;;;;;;;1.07;0.87;;;14.40;82.40;;;;;;4876021;29;20208;-83
2023/05/03 05:21:23;;;;;;;0.40;0.40;;;14.50;82.50;;;;;;4877752;29;20261;-81
2023/05/03 05:23:52;;;;;;;0.43;0.43;;;14.60;82.30;;;;;;4870560;29;20197;-81
2023/05/03 05:26:21;;;;;;;2.77;1.53;;;14.60;82.10;;;;;;4874011;29;20205;-82
2023/05/03 05:28:50;;;;;;;1.07;0.97;;;14.70;81.90;;;;;;4874075;29;20214;-82
2023/05/03 05:31:18;;;;;;;1.47;1.17;;;14.80;81.90;;;;;;4878804;29;20225;-81
2023/05/03 05:33:47;;;;;;;6.53;2.17;;;14.90;81.70;;;;;;4873865;29;20209;-83
2023/05/03 05:36:16;;;;;;;2.80;1.47;;;15.00;81.50;;;;;;4875254;29;20225;-82
2023/05/03 05:38:45;;;;;;;2.40;1.67;;;15.00;81.50;;;;;;4861355;29;20660;-83
2023/05/03 05:41:13;;;;;;;2.37;1.80;;;15.10;81.10;;;;;;4877478;29;20211;-82
2023/05/03 05:43:52;;;;;;;1.90;1.27;;;15.20;80.90;;;;;;4873503;29;20211;-80
2023/05/03 05:46:20;;;;;;;11.40;1.17;;;15.30;80.80;;;;;;4874374;29;20201;-86
2023/05/03 05:48:50;;;;;;;2.43;1.33;;;15.40;80.60;;;;;;4878331;29;20205;-82
2023/05/03 05:51:19;;;;;;;0.83;0.80;;;15.50;80.40;;;;;;4870948;29;20201;-81
2023/05/03 05:53:47;;;;;;;1.23;0.87;;;15.60;80.00;;;;;;4869705;29;20206;-80
2023/05/03 05:56:15;;;;;;;1.37;1.03;;;15.60;79.60;;;;;;4866454;29;20241;-81
2023/05/03 05:58:44;;;;;;;1.93;1.60;;;15.60;79.20;;;;;;4877045;29;20245;-82
2023/05/03 06:01:14;;;;;;;1.23;0.80;;;15.70;78.90;;;;;;4870178;29;20571;-82
2023/05/03 06:03:42;;;;;;;1.13;0.90;;;15.70;78.70;;;;;;4863535;29;20214;-82
2023/05/03 06:06:10;;;;;;;3.40;0.40;;;15.80;78.60;;;;;;4875545;29;20754;-82
2023/05/03 06:08:39;;;;;;;1.13;1.03;;;15.90;78.60;;;;;;4872990;29;20287;-81
2023/05/03 06:11:07;;;;;;;2.00;1.33;;;16.00;78.60;;;;;;4869186;29;20236;-83
2023/05/03 06:13:37;;;;;;;0.80;0.80;;;16.10;78.50;;;;;;4867641;29;20281;-81
2023/05/03 06:16:06;;;;;;;1.07;0.90;;;16.10;78.20;;;;;;4876236;29;20210;-80
2023/05/03 06:18:36;;;;;;;1.00;0.90;;;16.20;78.00;;;;;;4866293;29;20206;-82
2023/05/03 06:21:05;;;;;;;0.93;0.77;;;16.30;77.90;;;;;;4872028;29;20205;-82
2023/05/03 06:23:34;;;;;;;2.13;1.50;;;16.30;77.80;;;;;;4872784;29;20205;-83
2023/05/03 06:26:02;;;;;;;1.53;1.43;;;16.40;77.50;;;;;;4871078;29;20237;-83
2023/05/03 06:28:31;;;;;;;0.97;0.87;;;16.50;77.10;;;;;;4872778;29;20635;-85
2023/05/03 06:31:00;;;;;;;1.03;0.70;;;16.50;76.70;;;;;;4871867;29;20236;-84
2023/05/03 06:33:28;;;;;;;0.73;0.73;;;16.60;76.50;;;;;;4875241;29;20572;-83
2023/05/03 06:35:59;;;;;;;1.13;1.03;;;16.70;76.50;;;;;;4875706;29;20253;-84
2023/05/03 06:38:28;;;;;;;3.67;1.27;;;16.80;76.10;;;;;;4871137;29;20655;-84
2023/05/03 06:40:57;;;;;;;1.83;1.20;;;16.80;75.80;;;;;;4866446;29;20224;-81
2023/05/03 06:43:25;;;;;;;0.70;0.70;;;16.90;75.50;;;;;;4861156;29;20206;-84
2023/05/03 06:45:53;;;;;;;1.03;0.70;;;17.00;75.50;;;;;;4867947;29;20319;-81
2023/05/03 06:48:22;;;;;;;0.60;0.50;;;17.10;75.10;;;;;;4865840;29;20210;-82
2023/05/03 06:50:51;;;;;;;0.60;0.60;;;17.20;74.80;;;;;;4873772;29;20219;-82
2023/05/03 06:53:20;;;;;;;0.80;0.73;;;17.20;74.70;;;;;;4875865;29;20209;-83
2023/05/03 06:55:52;;;;;;;1.43;1.03;;;17.30;74.50;;;;;;4871255;29;20204;-82
2023/05/03 06:58:20;;;;;;;0.80;0.67;;;17.30;74.40;;;;;;4871118;29;20205;-81
2023/05/03 07:00:52;;;;;;;0.83;0.80;;;17.50;74.10;;;;;;4873160;29;20209;-81
2023/05/03 07:03:21;;;;;;;1.80;0.83;;;17.60;74.10;;;;;;4872477;29;20209;-82
2023/05/03 07:05:54;;;;;;;1.40;1.20;;;17.60;73.60;;;;;;4865516;29;20235;-81
2023/05/03 07:08:27;;;;;;;1.20;0.83;;;17.60;73.20;;;;;;4865019;29;21006;-82
2023/05/03 07:10:56;;;;;;;1.00;0.70;;;17.80;73.40;;;;;;4870507;29;20205;-83
2023/05/03 07:13:46;;;;;;;2.80;1.00;;;17.90;73.40;;;;;;4869488;29;20205;-80
2023/05/03 07:16:26;;;;;;;0.67;0.67;;;18.00;73.10;;;;;;4864643;29;20205;-81
2023/05/03 07:18:54;;;;;;;1.63;0.90;;;18.10;73.00;;;;;;4867304;29;20225;-82
2023/05/03 07:21:22;;;;;;;3.47;1.17;;;18.20;72.70;;;;;;4876408;29;20731;-81
2023/05/03 07:23:52;;;;;;;2.33;1.07;;;18.20;71.80;;;;;;4865068;29;20675;-81
2023/05/03 07:26:21;;;;;;;0.93;0.50;;;18.40;72.10;;;;;;4873934;29;20236;-82
2023/05/03 07:28:50;;;;;;;0.87;0.67;;;18.40;71.40;;;;;;4870120;29;20213;-81
2023/05/03 07:31:18;;;;;;;2.40;1.37;;;18.60;71.50;;;;;;4872614;29;20280;-82
2023/05/03 07:33:46;;;;;;;1.67;1.03;;;18.70;71.00;;;;;;4871401;29;20204;-81
2023/05/03 07:36:15;;;;;;;2.40;1.27;;;18.80;70.70;;;;;;4871312;29;20204;-77
2023/05/03 07:38:43;;;;;;;1.97;1.57;;;18.90;70.40;;;;;;4872637;29;20198;-82
2023/05/03 07:41:13;;;;;;;1.43;1.10;;;18.90;70.00;;;;;;4864637;29;20243;-80
2023/05/03 07:43:41;;;;;;;1.03;0.80;;;19.00;70.00;;;;;;4874272;29;20205;-80
2023/05/03 07:46:41;;;;;;;1.33;0.60;;;19.00;69.40;;;;;;4873256;29;20281;-82
2023/05/03 07:49:09;;;;;;;0.80;0.70;;;19.10;69.10;;;;;;4872805;29;20201;-81
2023/05/03 07:51:39;;;;;;;0.60;0.60;;;19.20;69.10;;;;;;4871709;29;20213;-82
2023/05/03 07:54:08;;;;;;;1.73;0.70;;;19.30;68.50;;;;;;4867254;29;20197;-81
2023/05/03 07:56:38;;;;;;;0.53;0.50;;;19.30;67.00;;;;;;4871578;29;20448;-81
2023/05/03 07:59:06;;;;;;;1.57;0.70;;;19.40;66.30;;;;;;4878125;29;20209;-81
2023/05/03 08:01:38;;;;;;;1.07;0.97;;;19.40;66.80;;;;;;4872480;29;20577;-80
2023/05/03 08:04:08;;;;;;;0.80;0.70;;;19.50;67.10;;;;;;4877925;29;20293;-82
2023/05/03 08:06:41;;;;;;;1.47;1.20;;;19.50;67.00;;;;;;4877840;29;20312;-82
2023/05/03 08:09:11;;;;;;;2.23;1.03;;;19.50;66.10;;;;;;4871350;29;20228;-82
2023/05/03 08:11:40;;;;;;;1.00;0.73;;;19.60;66.30;;;;;;4876755;29;20264;-84
2023/05/03 08:14:11;;;;;;;1.70;1.33;;;19.60;65.60;;;;;;4876009;29;20201;-81
2023/05/03 08:16:40;;;;;;;2.77;1.20;;;19.70;65.60;;;;;;4875680;29;20226;-82
2023/05/03 08:19:11;;;;;;;1.30;1.20;;;19.70;65.00;;;;;;4879219;29;20213;-83
2023/05/03 08:21:39;;;;;;;0.83;0.77;;;19.80;65.50;;;;;;4871060;29;20206;-81
2023/05/03 08:24:16;;;;;;;0.70;0.63;;;19.80;65.50;;;;;;4874328;29;20204;-80
2023/05/03 08:26:47;;;;;;;1.60;1.00;;;19.90;65.40;;;;;;4876391;29;20270;-80
2023/05/03 08:29:26;;;;;;;0.77;0.73;;;19.90;64.30;;;;;;4877324;29;20201;-80
2023/05/03 08:31:55;;;;;;;0.60;0.60;;;20.00;64.40;;;;;;4874000;29;20197;-80
2023/05/03 08:34:24;;;;;;;1.23;1.13;;;20.10;64.30;;;;;;4872928;29;20248;-80
2023/05/03 08:36:52;;;;;;;0.80;0.80;;;20.10;64.20;;;;;;4872309;29;20577;-79
2023/05/03 08:39:20;;;;;;;0.73;0.53;;;20.20;64.30;;;;;;4876033;29;20667;-81
2023/05/03 08:41:50;;;;;;;1.37;0.93;;;20.30;63.80;;;;;;4876969;29;20204;-81
2023/05/03 08:44:22;;;;;;;2.83;1.43;;;20.20;61.60;;;;;;4872891;29;20202;-82
2023/05/03 08:46:50;;;;;;;4.23;0.83;;;20.20;61.60;;;;;;4877432;29;20205;-82
2023/05/03 08:49:20;;;;;;;3.17;0.97;;;20.30;62.70;;;;;;4863538;29;20659;-83
2023/05/03 08:51:52;;;;;;;2.00;1.00;;;20.30;62.40;;;;;;4870468;29;20209;-80
2023/05/03 08:54:23;;;;;;;0.40;0.40;;;20.30;62.70;;;;;;4873836;29;20713;-82
2023/05/03 08:56:52;;;;;;;1.57;0.97;;;20.20;60.20;;;;;;4878580;29;20201;-81
2023/05/03 08:59:21;;;;;;;1.53;0.80;;;20.30;60.90;;;;;;4871390;29;20229;-82
2023/05/03 09:01:49;;;;;;;1.70;0.80;;;20.30;61.60;;;;;;4865687;29;20257;-80
2023/05/03 09:04:20;;;;;;;0.82;0.68;;;20.40;61.60;;;;;;4873206;29;20695;-79
2023/05/03 09:06:49;;;;;;;1.27;0.98;;;20.50;61.40;;;;;;4869548;29;20260;-78
2023/05/03 09:09:31;;;;;;;1.30;0.80;;;20.50;61.30;;;;;;4878296;29;20209;-78
2023/05/03 09:12:01;;;;;;;1.75;0.88;;;20.50;61.20;;;;;;4874679;29;20204;-84
2023/05/03 09:14:29;;;;;;;9.00;0.77;;;20.60;61.80;;;;;;4875011;29;20726;-82
2023/05/03 09:17:15;;;;;;;1.52;0.70;;;20.60;61.00;;;;;;4874644;29;20233;-83
2023/05/03 09:19:51;;;;;;;4.07;1.38;;;20.70;61.70;;;;;;4875356;29;20716;-82
2023/05/03 09:22:20;;;;;;;2.30;0.77;;;20.70;61.90;;;;;;4867825;29;20197;-81
2023/05/03 09:24:55;;;;;;;1.25;0.80;;;20.70;62.20;;;;;;4870273;29;20216;-83
2023/05/03 09:27:26;;;;;;;0.60;0.55;;;20.80;62.60;;;;;;4869543;29;20229;-80
2023/05/03 09:29:55;;;;;;;0.75;0.50;;;20.80;62.20;;;;;;4875851;29;20328;-85
2023/05/03 09:32:23;;;;;;;1.17;1.05;;;20.80;62.20;;;;;;4873881;29;20213;-83
2023/05/03 09:35:08;;;;;;;1.85;1.27;;;20.80;61.70;;;;;;4870808;29;20487;-78
2023/05/03 09:37:37;;;;;;;0.65;0.63;;;20.90;62.50;;;;;;4877484;29;20238;-78
2023/05/03 09:40:09;;;;;;;3.00;0.98;;;21.00;62.30;;;;;;4867169;29;20202;-80
2023/05/03 09:42:45;;;;;;;4.25;1.05;;;21.00;62.70;;;;;;4868306;29;20194;-80
2023/05/03 09:45:24;;;;;;;2.63;1.15;;;21.00;62.40;;;;;;4873476;29;20200;-83
2023/05/03 09:47:57;;;;;;;1.13;0.55;;;21.10;62.50;;;;;;4866837;29;20271;-80
2023/05/03 09:50:36;;;;;;;1.05;0.75;;;21.10;62.60;;;;;;4869305;29;20209;-80
2023/05/03 09:53:06;;;;;;;2.45;1.35;;;21.10;62.60;;;;;;4879262;29;20217;-80
2023/05/03 09:55:35;;;;;;;1.52;0.90;;;21.10;62.80;;;;;;4874508;29;20201;-79
2023/05/03 09:58:07;;;;;;;2.03;1.02;;;21.20;63.00;;;;;;4875659;29;20201;-79
2023/05/03 10:00:53;;;;;;;2.08;0.98;;;21.30;62.90;;;;;;4865697;29;20229;-79
2023/05/03 10:03:32;;;;;;;2.22;0.82;;;21.40;62.90;;;;;;4869754;29;20213;-80
2023/05/03 10:06:11;;;;;;;5.57;1.17;;;21.50;62.80;;;;;;4870925;29;20197;-81
2023/05/03 10:08:42;;;;;;;11.32;1.27;;;21.60;62.10;;;;;;4878332;29;20201;-82
2023/05/03 10:11:14;;;;;;;1.42;1.10;;;21.60;62.10;;;;;;4878277;29;20239;-80
2023/05/03 10:13:44;;;;;;;2.22;1.40;;;21.60;61.80;;;;;;4872384;29;20200;-81
2023/05/03 10:16:17;;;;;;;1.75;1.20;;;21.60;61.90;;;;;;4868604;29;20213;-80
2023/05/03 10:18:51;;;;;;;3.28;1.40;;;21.70;62.50;;;;;;4875238;29;20204;-81
2023/05/03 10:21:31;;;;;;;3.50;1.23;;;21.70;62.40;;;;;;4865755;29;20531;-81
2023/05/03 10:24:19;;;;;;;19.33;1.10;;;21.80;62.70;;;;;;4870747;29;20201;-82
2023/05/03 10:26:49;;;;;;;0.88;0.75;;;21.90;62.70;;;;;;4877368;29;20217;-81
2023/05/03 10:29:52;;;;;;;2.20;1.17;;;21.90;62.70;;;;;;4871007;29;20655;-80
2023/05/03 10:32:32;;;;;;;1.73;1.38;;;21.90;62.50;;;;;;4870767;29;20205;-79
2023/05/03 10:35:08;;;;;;;2.17;1.08;;;21.90;62.20;;;;;;4867968;29;20662;-81
2023/05/03 10:42:09;;;;;;;2.40;1.08;;;21.90;62.60;;;;;;4821752;29;20210;-80
2023/05/03 10:44:40;;;;;;;2.03;1.27;;;21.90;62.20;;;;;;4860933;29;20261;-81
2023/05/03 10:47:15;;;;;;;1.60;0.80;;;22.00;62.70;;;;;;4874992;29;20209;-79
2023/05/03 10:49:44;;;;;;;1.67;1.05;;;22.00;62.50;;;;;;4851414;29;20205;-82
2023/05/03 10:52:52;;;;;;;3.40;1.05;;;22.00;62.70;;;;;;4857215;29;20591;-80
2023/05/03 10:55:23;;;;;;;1.00;0.88;;;22.00;62.60;;;;;;4853202;29;20252;-82
2023/05/03 10:57:57;;;;;;;2.60;1.25;;;22.00;62.40;;;;;;4851829;29;20257;-80
2023/05/03 11:00:33;;;;;;;4.10;1.63;;;22.10;62.20;;;;;;4854774;29;20198;-80
2023/05/03 11:03:24;;;;;;;1.65;1.08;;;22.20;62.20;;;;;;4856343;29;20211;-78
2023/05/03 11:05:53;;;;;;;1.08;0.73;;;22.20;62.80;;;;;;4854700;29;20805;-80
2023/05/03 11:08:24;;;;;;;1.65;0.73;;;22.20;61.80;;;;;;4870560;29;20721;-80
2023/05/03 11:10:58;;;;;;;1.30;0.82;;;22.30;62.20;;;;;;4873364;29;20230;-79
2023/05/03 11:13:27;;;;;;;0.88;0.70;;;22.30;62.10;;;;;;4875931;29;20200;-78
2023/05/03 11:15:55;;;;;;;0.73;0.63;;;22.30;62.20;;;;;;4876374;29;20205;-80
2023/05/03 11:18:26;;;;;;;0.70;0.60;;;22.40;62.50;;;;;;4871662;29;20206;-80
2023/05/03 11:20:55;;;;;;;3.35;1.42;;;22.40;62.50;;;;;;4875186;29;20805;-82
2023/05/03 11:23:26;;;;;;;0.85;0.73;;;22.40;62.30;;;;;;4872198;29;20828;-79
2023/05/03 11:25:56;;;;;;;2.67;1.65;;;22.50;61.90;;;;;;4874265;29;20336;-79
2023/05/03 11:28:26;;;;;;;1.92;1.27;;;22.50;61.70;;;;;;4874133;29;20313;-81
2023/05/03 11:30:55;;;;;;;1.85;1.13;;;22.50;61.70;;;;;;4870634;29;20737;-82
2023/05/03 11:33:27;;;;;;;1.08;0.80;;;22.50;61.00;;;;;;4867523;29;21223;-80
2023/05/03 11:35:56;;;;;;;0.82;0.70;;;22.50;60.80;;;;;;4876030;29;20201;-81
2023/05/03 11:38:25;;;;;;;0.73;0.60;;;22.60;60.60;;;;;;4874932;29;20205;-82
2023/05/03 11:40:54;;;;;;;0.65;0.60;;;22.50;60.10;;;;;;4877640;29;20214;-79
2023/05/03 11:43:25;;;;;;;0.88;0.70;;;22.50;60.10;;;;;;4871604;29;20211;-81
2023/05/03 11:45:59;;;;;;;1.05;0.73;;;22.50;59.80;;;;;;4866892;29;20230;-79
2023/05/03 11:49:19;;;;;;;0.85;0.75;;;22.50;59.70;;;;;;4870241;29;20225;-83
2023/05/03 11:51:53;;;;;;;0.43;0.43;;;22.50;60.00;;;;;;4870253;29;20201;-81
2023/05/03 11:54:23;;;;;;;1.70;1.15;;;22.50;60.20;;;;;;4876922;29;20205;-79
2023/05/03 11:56:57;;;;;;;0.30;0.30;;;22.60;60.70;;;;;;4873872;29;20365;-81
2023/05/03 11:59:37;;;;;;;1.08;0.68;;;22.80;60.10;;;;;;4875439;29;20253;-81
2023/05/03 12:02:08;;;;;;;0.40;0.40;;;22.90;60.20;;;;;;4871087;29;20194;-82
2023/05/03 12:04:40;;;;;;;1.25;0.75;;;22.90;60.00;;;;;;4881456;29;20228;-80
2023/05/03 12:07:12;;;;;;;0.88;0.45;;;22.90;59.90;;;;;;4872278;29;20208;-82
2023/05/03 12:09:43;;;;;;;0.45;0.40;;;22.80;59.20;;;;;;4879856;29;20233;-82
2023/05/03 12:12:27;;;;;;;0.45;0.45;;;22.80;59.10;;;;;;4880061;29;20253;-80
2023/05/03 12:15:02;;;;;;;0.77;0.60;;;22.70;59.40;;;;;;4869750;29;20662;-82
2023/05/03 12:17:35;;;;;;;0.28;0.28;;;22.70;59.40;;;;;;4878283;29;20209;-81
2023/05/03 12:20:18;;;;;;;0.73;0.57;;;22.70;59.20;;;;;;4868832;29;20276;-84
2023/05/03 12:22:51;;;;;;;12.63;1.10;;;22.60;59.10;;;;;;4872552;29;20667;-81
2023/05/03 12:25:23;;;;;;;0.63;0.63;;;22.60;59.30;;;;;;4875007;29;20201;-81
2023/05/03 12:27:56;;;;;;;0.70;0.70;;;22.50;59.40;;;;;;4876829;29;20216;-81
2023/05/03 12:30:45;;;;;;;1.75;0.82;;;22.40;59.60;;;;;;4868411;29;20315;-80
2023/05/03 12:33:16;;;;;;;1.88;1.02;;;22.50;59.90;;;;;;4870734;29;20726;-82
2023/05/03 12:35:53;;;;;;;0.30;0.30;;;22.40;59.90;;;;;;4864431;29;20559;-83
2023/05/03 12:38:26;;;;;;;0.43;0.38;;;22.50;59.80;;;;;;4885298;23;20336;-82
2023/05/03 12:40:58;;;;;;;0.85;0.50;;;22.50;59.80;;;;;;4874369;29;20224;-78
2023/05/03 12:43:27;;;;;;;1.77;1.13;;;22.50;59.80;;;;;;4872432;29;20617;-81
2023/05/03 12:45:57;;;;;;;0.60;0.60;;;22.60;60.00;;;;;;4880921;29;20477;-80
2023/05/03 12:48:31;;;;;;;0.65;0.63;;;22.70;59.80;;;;;;4876631;29;20216;-83
2023/05/03 12:51:01;;;;;;;1.40;0.85;;;22.80;59.30;;;;;;4873749;29;20565;-81
2023/05/03 12:53:48;;;;;;;0.60;0.40;;;22.80;58.40;;;;;;4876648;29;20200;-78
2023/05/03 12:56:22;;;;;;;0.70;0.45;;;22.90;58.00;;;;;;4874770;29;20233;-77
2023/05/03 12:58:52;;;;;;;0.60;0.60;;;22.80;57.30;;;;;;4868900;29;21425;-77
2023/05/03 13:01:41;;;;;;;0.60;0.43;;;22.80;57.20;;;;;;4872104;29;20291;-77
2023/05/03 13:04:12;;;;;;;1.00;0.85;;;22.90;56.60;;;;;;4874910;29;20629;-79
2023/05/03 13:06:45;;;;;;;1.20;0.52;;;22.90;55.90;;;;;;4875384;29;20193;-79
2023/05/03 13:09:16;;;;;;;0.65;0.65;;;22.90;55.60;;;;;;4874549;29;20665;-78
2023/05/03 13:11:52;;;;;;;0.57;0.40;;;23.00;55.90;;;;;;4871548;29;20200;-78